CheckWX is a tool to help pilots better visualize weather data.  It is not intended as a substitute for an official pre-flight weather briefing.

05:16:14 UTC

LIPC TAF
Cervia Air Force Base Airport
Cervia, Italy
TAF LIPC 240200Z 2403/2412 05020KT CAVOK BECMG 2405/2407 29010KT BECMG 2410/2412 01012KT 9999 SCT050

Feb-24@
03:00 UTC

Feb-24 @ 03:00 UTC

Feb-24@
05:00 UTC

Feb-24 @ 05:00 UTC

TAF LIPC 240200Z 2403/2412 05020KT CAVOK

Expired

Wind
  • 050° at 20 KTS
Conditions
No significant weather
Cloud Levels
  • No significant clouds

Feb-24@
05:00 UTC

Feb-24 @ 05:00 UTC

Feb-24@
10:00 UTC

Feb-24 @ 10:00 UTC

BECMG 2405/2407 29010KT

Becoming

Becoming Conditions expected by Sun, Feb 24, 2019 @ 07:00 UTC

Wind
  • 290° at 10 KTS
Conditions
No significant weather
Cloud Levels
  • No significant clouds

Feb-24@
10:00 UTC

Feb-24 @ 10:00 UTC

Feb-24@
12:00 UTC

Feb-24 @ 12:00 UTC

BECMG 2410/2412 01012KT 9999 SCT050

Becoming

Becoming Conditions expected by Sun, Feb 24, 2019 @ 12:00 UTC

Wind
  • 010° at 12 KTS
Conditions
No significant weather
Cloud Levels
  • Scattered at 5,000' AGL